Time;durP1;ratioP1;P1;durP2;ratioP2;P2;SDS_P1;SDS_P2;PMS_P1;PMS_P2;Temp;Humidity;BMP_temperature;BMP_pressure;BME280_temperature;BME280_humidity;BME280_pressure;Samples;Min_cycle;Max_cycle;Signal;HPM_P1;HPM_P2
2021/12/15 00:04:44;;;;;;;88.57;28.50;;;8.00;99.90;;;;;;12459265;28;20334;-89
2021/12/15 00:10:48;;;;;;;79.65;27.90;;;7.90;99.90;;;;;;12462814;28;20489;-88
2021/12/15 00:16:50;;;;;;;80.95;28.27;;;7.90;99.90;;;;;;12463176;28;20072;-88
2021/12/15 00:22:52;;;;;;;78.30;28.05;;;7.90;99.90;;;;;;12466555;28;20058;-89
2021/12/15 00:28:55;;;;;;;82.05;29.77;;;7.90;99.90;;;;;;12465051;28;20110;-88
2021/12/15 00:34:56;;;;;;;88.95;29.45;;;7.90;99.90;;;;;;12471397;28;20041;-89
2021/12/15 00:40:59;;;;;;;85.82;28.70;;;7.90;99.90;;;;;;12457102;28;20087;-89
2021/12/15 00:47:02;;;;;;;82.72;29.30;;;7.90;99.90;;;;;;12455723;28;20107;-89
2021/12/15 00:53:07;;;;;;;88.03;30.00;;;7.90;99.90;;;;;;12471220;28;20060;-88
2021/12/15 00:59:11;;;;;;;91.38;30.88;;;8.00;99.90;;;;;;12480639;28;20458;-88
2021/12/15 01:05:15;;;;;;;80.75;29.95;;;7.90;99.90;;;;;;12464063;28;20045;-88
2021/12/15 01:11:30;;;;;;;83.60;30.10;;;7.90;99.90;;;;;;12457634;28;20096;-88
2021/12/15 01:23:54;;;;;;;77.40;27.95;;;7.90;99.90;;;;;;12474288;28;20044;-89
2021/12/15 01:29:57;;;;;;;76.60;28.45;;;7.90;99.90;;;;;;12457644;28;20045;-88
2021/12/15 01:36:00;;;;;;;75.65;27.80;;;7.90;99.90;;;;;;12456360;28;20367;-89
2021/12/15 01:42:03;;;;;;;74.93;28.30;;;8.00;99.90;;;;;;12464039;28;20152;-89
2021/12/15 01:48:09;;;;;;;75.20;29.67;;;8.00;99.90;;;;;;12461044;28;20040;-88
2021/12/15 01:54:12;;;;;;;77.30;27.65;;;8.10;99.90;;;;;;12460506;28;20099;-89
2021/12/15 02:00:21;;;;;;;69.57;26.90;;;8.10;99.90;;;;;;12462601;28;20059;-89
2021/12/15 02:06:25;;;;;;;61.40;25.85;;;8.10;99.90;;;;;;12456199;28;20110;-88
2021/12/15 02:12:34;;;;;;;70.57;26.85;;;8.10;99.90;;;;;;12459163;28;20053;-88
2021/12/15 02:18:42;;;;;;;61.00;25.80;;;8.10;99.90;;;;;;12466168;28;20369;-89
2021/12/15 02:24:48;;;;;;;60.42;26.27;;;8.10;99.90;;;;;;12473460;28;20188;-88
2021/12/15 02:31:17;;;;;;;63.90;25.48;;;8.20;99.90;;;;;;12454908;28;20049;-88
2021/12/15 02:37:20;;;;;;;60.63;26.05;;;8.10;99.90;;;;;;12470456;28;20412;-87
2021/12/15 02:43:22;;;;;;;72.22;28.67;;;8.20;99.90;;;;;;12468205;28;20059;-87
2021/12/15 02:49:28;;;;;;;66.15;28.52;;;8.10;99.90;;;;;;12467779;28;20099;-88
2021/12/15 02:55:30;;;;;;;69.78;28.88;;;8.10;99.90;;;;;;12448882;28;20049;-86
2021/12/15 03:01:54;;;;;;;73.57;30.17;;;8.10;99.90;;;;;;12455767;28;20057;-87
2021/12/15 03:08:08;;;;;;;74.30;30.40;;;8.20;99.90;;;;;;12469310;28;20048;-88
2021/12/15 03:20:36;;;;;;;81.82;31.92;;;8.20;99.90;;;;;;12473605;28;20063;-88
2021/12/15 03:26:49;;;;;;;78.88;33.47;;;8.20;99.90;;;;;;12459335;28;20563;-88
2021/12/15 03:39:12;;;;;;;80.30;33.13;;;8.20;99.90;;;;;;12481148;28;20063;-88
2021/12/15 03:45:24;;;;;;;87.47;34.13;;;8.20;99.90;;;;;;12457520;28;20051;-88
2021/12/15 03:51:26;;;;;;;96.70;37.20;;;8.20;99.90;;;;;;12464778;28;20048;-88
2021/12/15 03:57:28;;;;;;;89.43;35.67;;;8.10;99.90;;;;;;12461523;28;20064;-88
2021/12/15 04:03:37;;;;;;;98.75;38.05;;;8.20;99.90;;;;;;12462884;28;20055;-88
2021/12/15 04:09:44;;;;;;;101.63;40.33;;;8.20;99.90;;;;;;12469942;28;20053;-88
2021/12/15 04:15:55;;;;;;;109.97;41.67;;;8.20;99.90;;;;;;12482344;28;20820;-87
2021/12/15 04:21:58;;;;;;;103.63;40.47;;;8.10;99.90;;;;;;12460142;28;20615;-88
2021/12/15 04:28:12;;;;;;;114.78;42.05;;;8.10;99.90;;;;;;12457885;28;20045;-87
2021/12/15 04:34:15;;;;;;;109.78;41.97;;;8.00;99.90;;;;;;12481379;28;20048;-89
2021/12/15 04:40:18;;;;;;;114.80;42.60;;;8.00;99.90;;;;;;12457939;28;20433;-88
2021/12/15 04:46:20;;;;;;;113.63;43.53;;;8.10;99.90;;;;;;12464779;28;20055;-89
2021/12/15 04:52:28;;;;;;;124.25;43.88;;;8.00;99.90;;;;;;12461154;28;20046;-88
2021/12/15 04:58:30;;;;;;;118.03;42.50;;;8.10;99.90;;;;;;12464226;28;20099;-88
2021/12/15 05:04:32;;;;;;;122.45;42.28;;;8.00;99.90;;;;;;12460601;28;20545;-88
2021/12/15 05:10:37;;;;;;;125.65;42.65;;;8.00;99.90;;;;;;12459678;28;20114;-88
2021/12/15 05:16:39;;;;;;;115.90;41.83;;;8.00;99.90;;;;;;12475394;28;20507;-90
2021/12/15 05:22:41;;;;;;;121.05;42.33;;;8.00;99.90;;;;;;12463447;28;20056;-89
2021/12/15 05:28:43;;;;;;;120.95;41.47;;;8.00;99.90;;;;;;12460297;28;20049;-87
2021/12/15 05:34:47;;;;;;;115.40;40.25;;;8.00;99.90;;;;;;12457281;28;20037;-88
2021/12/15 05:40:49;;;;;;;107.03;41.45;;;8.00;99.90;;;;;;12482260;28;20053;-88
2021/12/15 05:46:54;;;;;;;106.50;40.58;;;8.00;99.90;;;;;;12462500;28;20553;-89
2021/12/15 05:52:57;;;;;;;107.55;41.42;;;8.00;99.90;;;;;;12459372;28;20386;-89
2021/12/15 05:58:59;;;;;;;113.18;42.83;;;8.00;99.90;;;;;;12464989;28;20124;-89
2021/12/15 06:05:02;;;;;;;117.15;42.45;;;8.00;99.90;;;;;;12460487;28;20388;-87
2021/12/15 06:11:05;;;;;;;117.03;42.50;;;8.00;99.90;;;;;;12473128;28;20052;-89
2021/12/15 06:17:11;;;;;;;120.13;44.25;;;8.00;99.90;;;;;;12449485;28;20049;-89
2021/12/15 06:23:18;;;;;;;115.18;42.22;;;8.00;99.90;;;;;;12450560;28;20164;-88
2021/12/15 06:29:20;;;;;;;114.63;43.30;;;8.00;99.90;;;;;;12451336;28;20050;-90
2021/12/15 06:35:22;;;;;;;117.90;43.08;;;8.00;99.90;;;;;;12450926;28;20045;-87
2021/12/15 06:41:24;;;;;;;107.38;40.55;;;8.00;99.90;;;;;;12468676;28;20057;-89
2021/12/15 07:00:12;;;;;;;106.32;40.70;;;8.00;99.90;;;;;;12464777;28;20053;-90
2021/12/15 07:06:14;;;;;;;100.53;40.10;;;8.00;99.90;;;;;;12448052;28;20860;-87
2021/12/15 07:12:16;;;;;;;104.32;40.83;;;8.00;99.90;;;;;;12466995;28;20476;-88
2021/12/15 07:18:26;;;;;;;91.95;37.17;;;8.00;99.90;;;;;;12462042;28;20167;-90
2021/12/15 07:24:29;;;;;;;86.63;35.85;;;8.00;99.90;;;;;;12456742;28;20045;-88
2021/12/15 07:30:31;;;;;;;98.00;38.20;;;8.00;99.90;;;;;;12467350;28;20072;-88
2021/12/15 07:36:33;;;;;;;106.32;38.42;;;8.00;99.90;;;;;;12446429;28;20049;-87
2021/12/15 07:42:42;;;;;;;93.10;35.90;;;7.90;99.90;;;;;;12452863;28;20045;-88
2021/12/15 07:48:51;;;;;;;100.63;37.53;;;8.00;99.90;;;;;;12444972;28;20049;-89
2021/12/15 07:54:54;;;;;;;105.10;37.38;;;8.00;99.90;;;;;;12452244;28;20493;-88
2021/12/15 08:00:59;;;;;;;81.25;34.38;;;8.00;99.90;;;;;;12461116;28;20087;-89
2021/12/15 08:07:02;;;;;;;103.40;36.80;;;8.00;99.90;;;;;;12461076;28;20139;-88
2021/12/15 08:13:04;;;;;;;93.68;36.88;;;8.00;99.90;;;;;;12465939;28;20045;-88
2021/12/15 08:19:07;;;;;;;98.20;36.25;;;8.00;99.90;;;;;;12468090;28;20069;-88
2021/12/15 08:25:11;;;;;;;87.43;34.60;;;8.00;99.90;;;;;;12455337;28;20136;-87
2021/12/15 08:31:13;;;;;;;94.70;36.57;;;8.10;99.90;;;;;;12456495;28;20304;-88
2021/12/15 08:37:15;;;;;;;97.60;36.25;;;8.10;99.90;;;;;;12449095;28;20052;-90
2021/12/15 08:43:19;;;;;;;90.00;35.22;;;8.10;99.90;;;;;;12454132;28;20107;-87
2021/12/15 08:49:23;;;;;;;90.50;35.63;;;8.10;99.90;;;;;;12465928;28;20076;-89
2021/12/15 08:55:25;;;;;;;91.10;35.75;;;8.10;99.90;;;;;;12467153;28;20637;-88
2021/12/15 09:01:28;;;;;;;84.05;34.47;;;8.10;99.90;;;;;;12481940;28;20045;-87
2021/12/15 09:07:30;;;;;;;83.45;33.25;;;8.20;99.90;;;;;;12485287;28;20064;-89
2021/12/15 09:13:32;;;;;;;78.88;33.63;;;8.20;99.90;;;;;;12471204;28;20409;-87
2021/12/15 09:19:34;;;;;;;72.10;30.58;;;8.20;99.90;;;;;;12501301;28;20053;-90
2021/12/15 09:25:37;;;;;;;71.30;31.02;;;8.20;99.90;;;;;;12501131;28;20542;-89
2021/12/15 09:31:39;;;;;;;73.55;30.48;;;8.30;99.90;;;;;;12474630;28;20167;-88
2021/12/15 09:37:42;;;;;;;74.85;31.23;;;8.20;99.90;;;;;;12463098;28;20056;-89
2021/12/15 09:43:45;;;;;;;78.38;32.88;;;8.30;99.90;;;;;;12452680;28;20049;-88
2021/12/15 10:02:41;;;;;;;83.93;34.42;;;8.30;99.90;;;;;;12471843;28;20049;-88
2021/12/15 10:21:35;;;;;;;83.32;35.08;;;8.40;99.90;;;;;;12472698;28;20098;-89
2021/12/15 10:27:42;;;;;;;82.43;33.72;;;8.40;99.90;;;;;;12456204;28;20044;-89
2021/12/15 10:33:52;;;;;;;81.40;32.25;;;8.40;99.90;;;;;;12479154;28;20064;-89
2021/12/15 10:40:20;;;;;;;90.18;36.85;;;8.50;99.90;;;;;;12495504;28;20496;-89
2021/12/15 10:46:24;;;;;;;90.90;35.38;;;8.50;99.90;;;;;;12478927;28;20073;-88
2021/12/15 10:52:26;;;;;;;89.47;35.67;;;8.40;99.90;;;;;;12458206;28;20055;-89
2021/12/15 10:58:41;;;;;;;82.15;33.92;;;8.60;99.90;;;;;;12476706;28;20061;-88
2021/12/15 11:04:46;;;;;;;78.35;33.70;;;8.60;99.90;;;;;;12454971;28;20618;-89
2021/12/15 11:10:52;;;;;;;70.43;33.38;;;8.60;99.90;;;;;;12453952;28;20059;-89
2021/12/15 11:17:09;;;;;;;79.13;34.55;;;8.60;99.90;;;;;;12454165;28;20053;-88
2021/12/15 11:23:13;;;;;;;74.25;33.45;;;8.60;99.90;;;;;;12485645;28;20067;-90
2021/12/15 11:29:15;;;;;;;;;;;8.70;99.90;;;;;;12463554;28;20042;-88
2021/12/15 11:35:22;;;;;;;70.88;32.72;;;8.70;99.90;;;;;;12461175;28;19929;-89
2021/12/15 11:41:39;;;;;;;71.05;33.05;;;8.70;99.90;;;;;;12471484;28;20045;-89
2021/12/15 11:47:43;;;;;;;65.22;31.85;;;8.70;99.90;;;;;;12480566;28;20089;-90
2021/12/15 11:53:46;;;;;;;63.53;32.60;;;8.80;99.90;;;;;;12413588;28;20513;-89
2021/12/15 11:59:56;;;;;;;61.92;32.22;;;8.80;99.90;;;;;;12434282;28;20544;-90
2021/12/15 12:05:58;;;;;;;63.67;32.67;;;8.80;99.90;;;;;;12427312;28;20050;-89
2021/12/15 12:12:00;;;;;;;62.75;31.55;;;8.80;99.90;;;;;;12431849;28;20470;-90
2021/12/15 12:18:15;;;;;;;62.22;31.25;;;8.80;99.90;;;;;;12430735;28;20399;-89
2021/12/15 12:24:18;;;;;;;55.83;28.15;;;8.90;99.90;;;;;;12420442;28;20081;-90
2021/12/15 12:30:31;;;;;;;54.15;29.33;;;8.90;99.90;;;;;;12424546;28;20042;-89
2021/12/15 12:36:34;;;;;;;54.75;29.73;;;8.90;99.90;;;;;;12435629;28;20470;-88
2021/12/15 12:42:41;;;;;;;55.00;29.17;;;8.90;99.90;;;;;;12428329;28;20114;-91
2021/12/15 13:01:35;;;;;;;52.88;30.92;;;8.90;99.90;;;;;;12478263;28;20046;-90
2021/12/15 13:07:44;;;;;;;56.30;31.67;;;8.90;99.90;;;;;;12478497;28;20119;-89
2021/12/15 13:14:08;;;;;;;54.78;31.23;;;8.90;99.90;;;;;;12465968;28;20076;-90
2021/12/15 13:20:26;;;;;;;53.40;30.77;;;8.90;99.90;;;;;;12472998;28;20544;-89
2021/12/15 13:33:15;;;;;;;58.15;30.88;;;9.00;99.90;;;;;;12488780;28;20129;-89
2021/12/15 13:39:18;;;;;;;56.92;31.65;;;8.90;99.90;;;;;;12474918;28;20163;-90
2021/12/15 13:45:31;;;;;;;61.63;30.98;;;8.90;99.90;;;;;;12479304;28;20064;-89
2021/12/15 13:51:56;;;;;;;55.87;29.83;;;8.90;99.90;;;;;;12473797;28;20496;-91
2021/12/15 13:58:09;;;;;;;53.33;29.42;;;9.00;99.90;;;;;;12435836;28;20056;-90
2021/12/15 14:04:11;;;;;;;55.85;30.77;;;8.90;99.90;;;;;;12457809;28;20049;-90
2021/12/15 14:10:17;;;;;;;59.40;29.95;;;8.90;99.90;;;;;;12462069;28;20053;-89
2021/12/15 14:16:42;;;;;;;62.83;34.03;;;8.90;99.90;;;;;;12469400;28;20080;-89
2021/12/15 14:22:44;;;;;;;;;;;8.80;99.90;;;;;;12476029;28;20067;-89
2021/12/15 14:28:54;;;;;;;57.58;29.88;;;8.70;99.90;;;;;;12461159;28;19931;-90
2021/12/15 14:35:01;;;;;;;55.35;30.75;;;8.70;99.90;;;;;;12455986;28;20778;-91
2021/12/15 14:41:29;;;;;;;59.65;30.98;;;8.80;99.90;;;;;;12451830;28;20073;-90
2021/12/15 14:47:35;;;;;;;63.63;31.20;;;8.80;99.90;;;;;;12457422;28;20049;-89
2021/12/15 14:53:43;;;;;;;62.33;30.25;;;8.70;99.90;;;;;;12459543;28;20444;-89
2021/12/15 14:59:51;;;;;;;68.03;31.15;;;8.70;99.90;;;;;;12457565;28;20113;-90
2021/12/15 15:05:53;;;;;;;64.72;31.15;;;8.60;99.90;;;;;;12465109;28;20053;-89
2021/12/15 15:12:00;;;;;;;64.05;31.08;;;8.60;99.90;;;;;;12456771;28;20098;-89
2021/12/15 15:18:34;;;;;;;66.60;31.38;;;8.50;99.90;;;;;;12463182;28;20080;-89
2021/12/15 15:24:36;;;;;;;59.13;28.73;;;8.60;99.90;;;;;;12462695;28;20091;-89
2021/12/15 15:30:42;;;;;;;66.47;30.88;;;8.60;99.90;;;;;;12463708;28;20135;-90
2021/12/15 15:36:45;;;;;;;63.80;30.13;;;8.60;99.90;;;;;;12459499;28;20052;-91
2021/12/15 15:43:00;;;;;;;61.00;31.10;;;8.60;99.90;;;;;;12466936;28;20155;-89
2021/12/15 15:49:13;;;;;;;57.78;28.80;;;8.60;99.90;;;;;;12456763;28;20553;-89
2021/12/15 15:55:17;;;;;;;61.65;29.70;;;8.60;99.90;;;;;;12472487;28;20044;-89
2021/12/15 16:01:21;;;;;;;58.70;30.00;;;8.60;99.90;;;;;;12458438;28;20094;-90
2021/12/15 16:07:23;;;;;;;59.30;29.08;;;8.60;99.90;;;;;;12459954;28;20055;-90
2021/12/15 16:13:30;;;;;;;58.72;28.30;;;8.60;99.90;;;;;;12479604;28;20037;-89
2021/12/15 16:19:38;;;;;;;64.38;30.67;;;8.50;99.90;;;;;;12471046;28;20064;-90
2021/12/15 16:25:42;;;;;;;60.85;28.15;;;8.50;99.90;;;;;;12476022;28;20422;-89
2021/12/15 16:31:51;;;;;;;59.72;29.08;;;8.50;99.90;;;;;;12476823;28;20049;-90
2021/12/15 16:37:55;;;;;;;63.75;28.92;;;8.50;99.90;;;;;;12478093;28;20114;-90
2021/12/15 16:44:03;;;;;;;63.42;29.95;;;8.50;99.90;;;;;;12460988;28;20053;-89
2021/12/15 16:50:07;;;;;;;63.15;29.95;;;8.40;99.90;;;;;;12469023;28;20053;-90
2021/12/15 16:56:18;;;;;;;65.70;31.00;;;8.50;99.90;;;;;;12463043;28;20534;-89
2021/12/15 17:02:25;;;;;;;67.65;32.22;;;8.50;99.90;;;;;;12480122;28;20041;-89
2021/12/15 17:08:28;;;;;;;68.88;31.75;;;8.50;99.90;;;;;;12462721;28;20091;-90
2021/12/15 17:14:40;;;;;;;62.20;31.35;;;8.50;99.90;;;;;;12462941;28;20493;-90
2021/12/15 17:20:45;;;;;;;69.40;33.50;;;8.50;99.90;;;;;;12462133;28;20101;-89
2021/12/15 17:26:49;;;;;;;67.75;34.30;;;8.50;99.90;;;;;;12463744;28;20503;-89
2021/12/15 17:32:52;;;;;;;67.40;32.85;;;8.50;99.90;;;;;;12454950;28;20115;-90
2021/12/15 17:39:34;;;;;;;68.53;32.88;;;8.50;99.90;;;;;;12446672;28;20550;-89
2021/12/15 17:45:36;;;;;;;64.22;31.10;;;8.50;99.90;;;;;;12343154;28;20048;-89
2021/12/15 17:51:44;;;;;;;65.88;32.03;;;8.50;99.90;;;;;;12447309;28;20049;-90
2021/12/15 17:57:58;;;;;;;61.88;30.15;;;8.50;99.90;;;;;;12458562;28;20126;-89
2021/12/15 18:04:04;;;;;;;57.40;29.05;;;8.50;99.90;;;;;;12464892;28;20488;-90
2021/12/15 18:10:14;;;;;;;54.03;28.42;;;8.60;99.90;;;;;;12453722;28;20041;-88
2021/12/15 18:16:17;;;;;;;54.85;28.83;;;8.40;99.90;;;;;;12454371;28;20057;-89
2021/12/15 18:22:19;;;;;;;62.50;30.33;;;8.30;99.90;;;;;;12469482;28;20137;-90
2021/12/15 18:28:21;;;;;;;57.63;28.95;;;8.20;99.90;;;;;;12452972;28;20049;-90
2021/12/15 18:34:24;;;;;;;57.92;29.15;;;8.30;99.90;;;;;;12430043;28;20045;-90
2021/12/15 18:40:28;;;;;;;53.10;27.75;;;8.20;99.90;;;;;;12410686;28;20057;-89
2021/12/15 18:46:36;;;;;;;51.20;27.30;;;8.30;99.90;;;;;;12445563;28;20056;-90
2021/12/15 18:52:37;;;;;;;50.03;26.08;;;8.30;99.90;;;;;;12451747;28;20049;-89
2021/12/15 18:58:42;;;;;;;47.72;26.67;;;8.30;99.90;;;;;;12427792;28;20048;-90
2021/12/15 19:04:45;;;;;;;52.28;27.45;;;8.30;99.90;;;;;;12410369;28;20503;-90
2021/12/15 19:10:48;;;;;;;50.13;26.40;;;8.20;99.90;;;;;;12441500;28;21046;-90
2021/12/15 19:16:52;;;;;;;45.17;25.88;;;8.30;99.90;;;;;;12442887;28;20412;-90
2021/12/15 19:22:54;;;;;;;47.00;25.63;;;8.40;99.90;;;;;;12447546;28;20420;-90
2021/12/15 19:28:58;;;;;;;47.45;24.17;;;8.40;99.90;;;;;;12455422;28;20050;-90
2021/12/15 19:35:00;;;;;;;43.80;23.08;;;8.40;99.90;;;;;;12450560;28;20050;-91
2021/12/15 19:41:03;;;;;;;42.50;22.88;;;8.40;99.90;;;;;;12450833;28;20045;-91
2021/12/15 19:47:08;;;;;;;35.72;21.20;;;8.50;99.90;;;;;;12459023;28;20049;-90
2021/12/15 19:53:13;;;;;;;35.40;19.83;;;8.40;99.90;;;;;;12459698;28;20510;-90
2021/12/15 19:59:15;;;;;;;35.20;19.55;;;8.40;99.90;;;;;;12472743;28;20053;-90
2021/12/15 20:05:23;;;;;;;31.98;18.80;;;8.50;99.90;;;;;;12471526;28;20079;-91
2021/12/15 20:11:29;;;;;;;32.72;17.90;;;8.50;99.90;;;;;;12471199;28;20048;-90
2021/12/15 20:17:32;;;;;;;29.02;17.17;;;8.40;99.90;;;;;;12469087;28;20140;-90
2021/12/15 20:23:34;;;;;;;39.15;19.90;;;8.30;99.90;;;;;;12467095;28;20168;-90
2021/12/15 20:29:36;;;;;;;48.95;24.50;;;8.20;99.90;;;;;;12471203;28;20425;-90
2021/12/15 20:35:39;;;;;;;44.28;24.73;;;8.10;99.90;;;;;;12467029;28;20049;-91
2021/12/15 20:41:42;;;;;;;53.40;26.50;;;8.10;99.90;;;;;;12471370;28;20087;-89
2021/12/15 20:47:44;;;;;;;58.35;28.55;;;8.20;99.90;;;;;;12470833;28;20067;-90
2021/12/15 20:53:49;;;;;;;53.65;28.50;;;8.20;99.90;;;;;;12459665;28;20664;-90
2021/12/15 20:59:51;;;;;;;47.10;25.98;;;8.10;99.90;;;;;;12462791;28;20048;-89
2021/12/15 21:06:02;;;;;;;47.55;26.95;;;8.10;99.90;;;;;;12458455;28;20083;-90
2021/12/15 21:12:06;;;;;;;53.50;27.45;;;8.10;99.90;;;;;;12460874;28;20545;-89
2021/12/15 21:18:09;;;;;;;52.63;27.77;;;8.10;99.90;;;;;;12456253;28;20136;-90
2021/12/15 21:24:11;;;;;;;54.13;27.85;;;8.10;99.90;;;;;;12457038;28;20091;-90
2021/12/15 21:30:20;;;;;;;58.90;29.50;;;8.10;99.90;;;;;;12453816;28;20559;-89
2021/12/15 21:36:24;;;;;;;54.55;27.58;;;8.10;99.90;;;;;;12452144;28;20804;-91
2021/12/15 21:42:26;;;;;;;63.05;32.53;;;8.10;99.90;;;;;;12472702;28;20502;-90
2021/12/15 21:48:31;;;;;;;62.13;30.67;;;8.10;99.90;;;;;;12443474;28;20060;-90
2021/12/15 21:54:34;;;;;;;64.18;33.63;;;8.10;99.90;;;;;;12447566;28;20041;-89
2021/12/15 22:00:37;;;;;;;65.07;31.98;;;8.20;99.90;;;;;;12453095;28;20599;-88
2021/12/15 22:06:41;;;;;;;67.43;33.73;;;8.10;99.90;;;;;;12460453;28;20477;-90
2021/12/15 22:12:43;;;;;;;69.95;33.30;;;8.10;99.90;;;;;;12478704;28;20057;-89
2021/12/15 22:18:49;;;;;;;65.13;32.55;;;8.10;99.90;;;;;;12457322;28;20444;-90
2021/12/15 22:24:52;;;;;;;66.00;34.00;;;8.00;99.90;;;;;;12448272;28;20041;-92
2021/12/15 22:30:59;;;;;;;65.30;32.78;;;7.90;99.90;;;;;;12439866;28;20173;-90
2021/12/15 22:37:01;;;;;;;69.30;34.45;;;7.80;99.90;;;;;;12448798;28;20052;-89
2021/12/15 22:43:03;;;;;;;67.18;32.33;;;7.80;99.90;;;;;;12455341;28;20045;-90
2021/12/15 22:49:26;;;;;;;65.80;34.03;;;7.80;99.90;;;;;;12460246;28;20379;-89
2021/12/15 22:55:28;;;;;;;70.25;35.58;;;7.80;99.90;;;;;;12447656;28;20175;-90
2021/12/15 23:01:38;;;;;;;68.53;35.55;;;7.80;99.90;;;;;;12452184;28;20041;-90
2021/12/15 23:07:42;;;;;;;71.70;36.65;;;7.80;99.90;;;;;;12447226;28;20148;-91
2021/12/15 23:13:44;;;;;;;71.35;36.67;;;7.80;99.90;;;;;;12453217;28;20041;-90
2021/12/15 23:19:50;;;;;;;64.05;33.63;;;8.00;99.90;;;;;;12440689;28;20095;-90
2021/12/15 23:25:53;;;;;;;66.93;34.85;;;8.00;99.90;;;;;;12465287;28;20445;-91
2021/12/15 23:31:56;;;;;;;63.35;34.35;;;8.20;99.90;;;;;;12478784;28;20076;-89
2021/12/15 23:38:23;;;;;;;63.08;34.10;;;8.10;99.90;;;;;;12464769;28;20053;-90
2021/12/15 23:54:43;;;;;;;75.07;35.30;;;7.90;99.90;;;;;;12472183;28;20049;-91
